createdAt,value
2023-02-19T00:01:57.235Z,100222.34
2023-02-19T00:04:24.888Z,100224.44
2023-02-19T00:06:52.198Z,100220.47
2023-02-19T00:09:19.781Z,100220.19
2023-02-19T00:11:48.042Z,100232.16
2023-02-19T00:14:18.035Z,100232.06
2023-02-19T00:16:46.327Z,100236.84
2023-02-19T00:19:16.595Z,100221.56
2023-02-19T00:21:44.126Z,100236.81
2023-02-19T00:24:13.455Z,100234.06
2023-02-19T00:26:42.430Z,100233.53
2023-02-19T00:29:14.468Z,100225.06
2023-02-19T00:31:42.413Z,100225.19
2023-02-19T00:34:10.817Z,100212.13
2023-02-19T00:36:40.452Z,100201.25
2023-02-19T00:39:09.076Z,100201.38
2023-02-19T00:41:36.369Z,100199.56
2023-02-19T00:44:06.522Z,100194.19
2023-02-19T00:46:36.372Z,100192.31
2023-02-19T00:49:05.396Z,100185.38
2023-02-19T00:51:35.913Z,100190.44
2023-02-19T00:54:04.485Z,100194.34
2023-02-19T00:56:31.779Z,100188.47
2023-02-19T00:58:59.077Z,100187.94
2023-02-19T01:01:26.775Z,100192.22
2023-02-19T01:03:54.119Z,100197.78
2023-02-19T01:06:21.864Z,100194.91
2023-02-19T01:08:50.205Z,100190.84
2023-02-19T01:11:18.687Z,100186.78
2023-02-19T01:13:46.136Z,100180.22
2023-02-19T01:16:19.749Z,100164.16
2023-02-19T01:18:47.692Z,100171.34
2023-02-19T01:21:18.414Z,100170.31
2023-02-19T01:23:46.274Z,100161.94
2023-02-19T01:26:17.101Z,100167.09
2023-02-19T01:28:45.068Z,100170.91
2023-02-19T01:31:15.575Z,100160.19
2023-02-19T01:33:48.238Z,100164.38
2023-02-19T01:36:16.134Z,100169.28
2023-02-19T01:38:43.746Z,100165.28
2023-02-19T01:41:14.334Z,100164.78
2023-02-19T01:44:05.249Z,100168.09
2023-02-19T01:46:34.443Z,100158.31
2023-02-19T01:49:12.528Z,100161.00
2023-02-19T01:51:44.966Z,100176.22
2023-02-19T01:54:15.669Z,100182.63
2023-02-19T01:56:46.094Z,100178.88
2023-02-19T01:59:14.719Z,100181.88
2023-02-19T02:01:42.209Z,100180.59
2023-02-19T02:04:10.010Z,100169.75
2023-02-19T02:06:49.307Z,100169.28
2023-02-19T02:09:19.350Z,100173.56
2023-02-19T02:11:50.038Z,100178.44
2023-02-19T02:14:20.214Z,100165.50
2023-02-19T02:17:12.130Z,100162.97
2023-02-19T02:19:39.468Z,100161.06
2023-02-19T02:22:09.547Z,100165.66
2023-02-19T02:24:43.093Z,100156.94
2023-02-19T02:27:13.409Z,100151.44
2023-02-19T02:29:59.251Z,100169.69
2023-02-19T02:32:33.622Z,100168.81
2023-02-19T02:35:10.096Z,100172.53
2023-02-19T02:37:42.279Z,100168.59
2023-02-19T02:40:11.309Z,100173.94
2023-02-19T02:42:40.376Z,100189.69
2023-02-19T02:45:23.881Z,100191.97
2023-02-19T02:47:53.566Z,100182.88
2023-02-19T02:50:27.415Z,100184.38
2023-02-19T02:53:07.481Z,100195.03
2023-02-19T02:55:39.790Z,100191.81
2023-02-19T02:58:08.583Z,100202.28
2023-02-19T03:00:38.142Z,100190.50
2023-02-19T03:03:06.430Z,100197.94
2023-02-19T03:05:34.262Z,100186.50
2023-02-19T03:08:22.015Z,100189.72
2023-02-19T03:11:15.551Z,100197.25
2023-02-19T03:13:42.979Z,100194.72
2023-02-19T03:16:16.824Z,100203.84
2023-02-19T03:18:46.885Z,100205.56
2023-02-19T03:21:19.305Z,100222.41
2023-02-19T03:23:48.118Z,100236.91
2023-02-19T03:26:17.418Z,100227.81
2023-02-19T03:28:47.285Z,100236.13
2023-02-19T03:31:19.545Z,100246.31
2023-02-19T03:33:53.532Z,100236.13
2023-02-19T03:36:23.340Z,100240.72
2023-02-19T03:38:56.736Z,100233.16
2023-02-19T03:41:26.760Z,100224.66
2023-02-19T03:44:03.095Z,100226.25
2023-02-19T03:47:23.709Z,100239.66
2023-02-19T03:49:51.614Z,100233.50
2023-02-19T03:52:28.688Z,100238.03
2023-02-19T03:55:16.690Z,100243.63
2023-02-19T03:57:56.447Z,100243.13
2023-02-19T04:00:38.810Z,100245.53
2023-02-19T04:03:09.668Z,100246.59
2023-02-19T04:05:42.585Z,100248.47
2023-02-19T04:08:16.912Z,100242.88
2023-02-19T04:10:46.971Z,100259.97
2023-02-19T04:13:42.522Z,100247.66
2023-02-19T04:16:15.521Z,100251.97
2023-02-19T04:18:47.613Z,100253.31
2023-02-19T04:21:16.141Z,100247.44
2023-02-19T04:23:45.582Z,100259.97
2023-02-19T04:26:15.133Z,100250.31
2023-02-19T04:28:42.636Z,100257.84
2023-02-19T04:31:11.117Z,100271.47
2023-02-19T04:33:42.967Z,100252.75
2023-02-19T04:36:11.038Z,100254.66
2023-02-19T04:38:38.303Z,100251.19
2023-02-19T04:41:06.011Z,100241.56
2023-02-19T04:43:33.939Z,100249.56
2023-02-19T04:46:02.456Z,100250.38
2023-02-19T04:48:30.482Z,100262.94
2023-02-19T04:51:00.083Z,100265.66
2023-02-19T04:53:28.115Z,100253.19
2023-02-19T04:55:56.181Z,100252.84
2023-02-19T04:58:24.155Z,100265.81
2023-02-19T05:00:53.096Z,100276.16
2023-02-19T05:03:20.889Z,100269.56
2023-02-19T05:05:48.988Z,100273.84
2023-02-19T05:08:16.270Z,100275.50
2023-02-19T05:10:43.558Z,100275.00
2023-02-19T05:13:10.909Z,100273.66
2023-02-19T05:15:38.401Z,100276.56
2023-02-19T05:18:06.197Z,100285.63
2023-02-19T05:20:33.588Z,100278.94
2023-02-19T05:23:00.837Z,100276.53
2023-02-19T05:25:28.138Z,100280.03
2023-02-19T05:27:55.482Z,100287.22
2023-02-19T05:30:22.867Z,100290.44
2023-02-19T05:32:50.305Z,100303.78
2023-02-19T05:35:17.738Z,100301.63
2023-02-19T05:37:45.035Z,100297.09
2023-02-19T05:40:12.315Z,100305.09
2023-02-19T05:42:39.563Z,100292.59
2023-02-19T05:45:07.842Z,100291.81
2023-02-19T05:47:37.893Z,100302.25
2023-02-19T05:50:05.652Z,100308.13
2023-02-19T05:52:33.131Z,100320.13
2023-02-19T05:55:00.464Z,100326.81
2023-02-19T05:57:27.796Z,100319.34
2023-02-19T05:59:56.741Z,100333.78
2023-02-19T06:02:27.008Z,100327.09
2023-02-19T06:04:54.386Z,100327.06
2023-02-19T06:07:21.664Z,100335.34
2023-02-19T06:09:50.809Z,100332.03
2023-02-19T06:12:22.253Z,100335.78
2023-02-19T06:14:49.692Z,100351.19
2023-02-19T06:17:19.845Z,100364.66
2023-02-19T06:19:47.143Z,100358.09
2023-02-19T06:22:15.574Z,100357.66
2023-02-19T06:24:42.947Z,100362.25
2023-02-19T06:27:10.409Z,100369.44
2023-02-19T06:29:37.704Z,100373.22
2023-02-19T06:32:06.701Z,100383.97
2023-02-19T06:34:35.141Z,100380.06
2023-02-19T06:37:02.906Z,100373.94
2023-02-19T06:39:30.252Z,100380.56
2023-02-19T06:41:58.185Z,100373.63
2023-02-19T06:44:25.574Z,100381.78
2023-02-19T06:46:55.320Z,100385.63
2023-02-19T06:49:25.442Z,100382.19
2023-02-19T06:51:52.931Z,100378.50
2023-02-19T06:54:20.177Z,100386.66
2023-02-19T06:56:47.493Z,100391.22
2023-02-19T06:59:16.132Z,100389.31
2023-02-19T07:01:43.924Z,100381.78
2023-02-19T07:04:19.391Z,100382.91
2023-02-19T07:06:46.757Z,100375.63
2023-02-19T07:09:14.233Z,100383.03
2023-02-19T07:11:41.514Z,100388.72
2023-02-19T07:14:16.132Z,100376.50
2023-02-19T07:16:45.949Z,100383.81
2023-02-19T07:19:14.625Z,100380.22
2023-02-19T07:21:42.599Z,100389.03
2023-02-19T07:24:10.201Z,100378.84
2023-02-19T07:26:40.692Z,100376.56
2023-02-19T07:29:11.707Z,100371.97
2023-02-19T07:31:43.243Z,100373.59
2023-02-19T07:34:10.597Z,100372.69
2023-02-19T07:36:37.947Z,100380.34
2023-02-19T07:39:05.497Z,100370.75
2023-02-19T07:41:33.150Z,100367.03
2023-02-19T07:44:00.576Z,100368.53
2023-02-19T07:46:29.233Z,100371.03
2023-02-19T07:48:57.568Z,100374.84
2023-02-19T07:51:30.432Z,100365.16
2023-02-19T07:54:00.741Z,100367.56
2023-02-19T07:56:28.196Z,100368.13
2023-02-19T07:58:59.755Z,100370.78
2023-02-19T08:01:29.813Z,100369.69
2023-02-19T08:03:57.861Z,100362.41
2023-02-19T08:06:25.422Z,100361.66
2023-02-19T08:08:52.758Z,100373.78
2023-02-19T08:11:20.093Z,100376.34
2023-02-19T08:13:52.073Z,100378.53
2023-02-19T08:16:33.084Z,100378.22
2023-02-19T08:19:07.768Z,100374.13
2023-02-19T08:21:35.232Z,100389.38
2023-02-19T08:24:02.623Z,100390.16
2023-02-19T08:26:29.851Z,100393.53
2023-02-19T08:28:57.091Z,100388.00
2023-02-19T08:31:25.059Z,100392.22
2023-02-19T08:33:52.798Z,100397.03
2023-02-19T08:36:20.244Z,100394.72
2023-02-19T08:38:47.506Z,100408.91
2023-02-19T08:41:18.349Z,100402.44
2023-02-19T08:43:45.639Z,100396.06
2023-02-19T08:46:13.006Z,100395.09
2023-02-19T08:48:40.816Z,100394.72
2023-02-19T08:51:11.125Z,100396.97
2023-02-19T08:53:40.342Z,100380.13
2023-02-19T08:56:15.957Z,100391.66
2023-02-19T08:58:43.888Z,100387.00
2023-02-19T09:01:16.344Z,100382.25
2023-02-19T09:03:43.952Z,100377.66
2023-02-19T09:06:15.141Z,100391.69
2023-02-19T09:08:42.580Z,100390.78
2023-02-19T09:11:10.234Z,100381.00
2023-02-19T09:13:37.780Z,100387.38
2023-02-19T09:16:05.529Z,100374.03
2023-02-19T09:18:33.318Z,100365.78
2023-02-19T09:21:03.463Z,100363.72
2023-02-19T09:23:33.222Z,100360.31
2023-02-19T09:26:01.466Z,100360.47
2023-02-19T09:28:28.834Z,100345.56
2023-02-19T09:30:56.282Z,100352.78
2023-02-19T09:33:23.650Z,100356.47
2023-02-19T09:35:50.942Z,100354.97
2023-02-19T09:38:18.266Z,100345.75
2023-02-19T09:40:45.783Z,100347.84
2023-02-19T09:43:18.704Z,100351.66
2023-02-19T09:45:47.868Z,100353.41
2023-02-19T09:48:15.319Z,100360.00
2023-02-19T09:50:47.881Z,100351.91
2023-02-19T09:53:24.430Z,100345.75
2023-02-19T09:55:53.253Z,100351.59
2023-02-19T09:58:32.194Z,100353.97
2023-02-19T10:01:05.989Z,100354.66
2023-02-19T10:03:37.852Z,100343.50
2023-02-19T10:06:20.041Z,100348.66
2023-02-19T10:09:25.678Z,100347.75
2023-02-19T10:11:54.890Z,100342.25
2023-02-19T10:14:34.028Z,100341.78
2023-02-19T10:17:05.106Z,100328.53
2023-02-19T10:19:34.285Z,100329.94
2023-02-19T10:22:04.124Z,100323.72
2023-02-19T10:24:31.902Z,100317.25
2023-02-19T10:26:59.204Z,100322.00
2023-02-19T10:29:26.603Z,100312.31
2023-02-19T10:32:16.208Z,100314.06
2023-02-19T10:34:43.618Z,100316.75
2023-02-19T10:37:15.691Z,100313.09
2023-02-19T10:39:50.809Z,100306.88
2023-02-19T10:42:23.286Z,100307.03
2023-02-19T10:45:01.288Z,100293.84
2023-02-19T10:47:31.778Z,100296.50
2023-02-19T10:50:02.137Z,100287.59
2023-02-19T10:52:34.448Z,100290.03
2023-02-19T10:55:27.320Z,100277.72
2023-02-19T10:57:55.572Z,100280.41
2023-02-19T11:00:26.222Z,100281.44
2023-02-19T11:03:14.030Z,100270.69
2023-02-19T11:06:00.663Z,100269.91
2023-02-19T11:08:28.528Z,100257.88
2023-02-19T11:10:56.499Z,100265.50
2023-02-19T11:13:31.410Z,100255.25
2023-02-19T11:16:00.032Z,100250.94
2023-02-19T11:18:36.729Z,100248.16
2023-02-19T11:21:06.373Z,100262.06
2023-02-19T11:23:44.594Z,100257.19
2023-02-19T11:26:25.526Z,100250.44
2023-02-19T11:29:01.194Z,100241.22
2023-02-19T11:31:30.825Z,100251.59
2023-02-19T11:34:00.801Z,100240.94
2023-02-19T11:36:31.017Z,100239.72
2023-02-19T11:39:18.387Z,100229.56
2023-02-19T11:42:23.867Z,100242.44
2023-02-19T11:44:59.924Z,100235.50
2023-02-19T11:47:51.514Z,100240.47
2023-02-19T11:50:24.971Z,100224.53
2023-02-19T11:53:17.267Z,100228.75
2023-02-19T11:56:07.770Z,100227.97
2023-02-19T11:59:04.873Z,100218.38
2023-02-19T12:01:58.475Z,100218.41
2023-02-19T12:04:50.247Z,100209.78
2023-02-19T12:07:54.949Z,100213.25
2023-02-19T12:10:33.782Z,100218.78
2023-02-19T12:13:31.553Z,100193.22
2023-02-19T12:16:07.949Z,100206.97
2023-02-19T12:18:44.376Z,100198.06
2023-02-19T12:21:51.781Z,100192.03
2023-02-19T12:24:58.496Z,100189.28
2023-02-19T12:28:16.759Z,100173.91
2023-02-19T12:31:07.337Z,100180.78
2023-02-19T12:33:52.498Z,100165.56
2023-02-19T12:36:53.399Z,100160.97
2023-02-19T12:39:23.233Z,100165.63
2023-02-19T12:42:23.373Z,100157.81
2023-02-19T12:45:07.211Z,100158.22
2023-02-19T12:47:42.425Z,100154.59
2023-02-19T12:50:24.945Z,100155.38
2023-02-19T12:53:33.946Z,100153.47
2023-02-19T12:56:08.636Z,100138.28
2023-02-19T12:58:43.925Z,100139.63
2023-02-19T13:01:18.928Z,100138.56
2023-02-19T13:03:53.895Z,100144.09
2023-02-19T13:06:43.009Z,100134.22
2023-02-19T13:09:23.476Z,100126.94
2023-02-19T13:11:56.229Z,100127.59
2023-02-19T13:14:47.094Z,100128.22
2023-02-19T13:17:43.867Z,100115.66
2023-02-19T13:20:32.755Z,100119.47
2023-02-19T13:23:14.024Z,100114.88
2023-02-19T13:25:57.277Z,100101.50
2023-02-19T13:28:52.820Z,100099.63
2023-02-19T13:31:38.252Z,100101.66
2023-02-19T13:34:42.170Z,100101.66
2023-02-19T13:37:16.883Z,100110.44
2023-02-19T13:39:51.070Z,100115.81
2023-02-19T13:42:26.013Z,100106.91
2023-02-19T13:44:57.949Z,100109.59
2023-02-19T13:48:07.853Z,100114.84
2023-02-19T13:50:35.125Z,100119.00
2023-02-19T13:53:40.669Z,100114.66
2023-02-19T13:56:32.512Z,100113.41
2023-02-19T13:59:23.944Z,100110.53
2023-02-19T14:01:54.381Z,100106.56
2023-02-19T14:04:42.621Z,100104.50
2023-02-19T14:07:49.821Z,100104.00
2023-02-19T14:10:56.421Z,100095.59
2023-02-19T14:13:56.530Z,100100.81
2023-02-19T14:16:35.197Z,100096.94
2023-02-19T14:19:02.550Z,100086.69
2023-02-19T14:21:38.260Z,100090.50
2023-02-19T14:24:12.027Z,100091.06
2023-02-19T14:26:49.435Z,100085.66
2023-02-19T14:29:17.440Z,100085.88
2023-02-19T14:31:46.732Z,100093.25
2023-02-19T14:34:18.036Z,100094.50
2023-02-19T14:37:06.121Z,100092.03
2023-02-19T14:39:36.787Z,100095.38
2023-02-19T14:42:15.141Z,100092.44
2023-02-19T14:44:55.485Z,100093.19
2023-02-19T14:47:30.184Z,100097.81
2023-02-19T14:50:17.617Z,100086.38
2023-02-19T14:52:49.692Z,100087.63
2023-02-19T14:55:37.866Z,100088.41
2023-02-19T14:58:12.024Z,100099.28
2023-02-19T15:00:42.143Z,100093.50
2023-02-19T15:03:31.290Z,100091.78
2023-02-19T15:06:06.019Z,100098.69
2023-02-19T15:08:39.688Z,100096.47
2023-02-19T15:11:18.945Z,100102.03
2023-02-19T15:14:00.866Z,100095.03
2023-02-19T15:16:30.358Z,100101.88
2023-02-19T15:18:59.872Z,100096.63
2023-02-19T15:21:30.274Z,100087.72
2023-02-19T15:24:00.761Z,100083.88
2023-02-19T15:26:37.105Z,100078.00
2023-02-19T15:29:16.097Z,100087.09
2023-02-19T15:31:49.293Z,100090.38
2023-02-19T15:34:22.111Z,100069.19
2023-02-19T15:36:52.839Z,100063.53
2023-02-19T15:39:24.292Z,100060.22
2023-02-19T15:41:55.331Z,100071.78
2023-02-19T15:44:22.533Z,100079.72
2023-02-19T15:46:57.620Z,100078.63
2023-02-19T15:49:33.714Z,100079.22
2023-02-19T15:52:07.912Z,100074.13
2023-02-19T15:54:57.260Z,100077.75
2023-02-19T15:57:34.906Z,100072.53
2023-02-19T16:00:23.311Z,100069.81
2023-02-19T16:02:50.823Z,100078.34
2023-02-19T16:05:27.107Z,100085.06
2023-02-19T16:08:25.852Z,100084.63
2023-02-19T16:10:59.303Z,100091.25
2023-02-19T16:13:28.917Z,100097.94
2023-02-19T16:16:09.680Z,100097.00
2023-02-19T16:18:49.500Z,100094.97
2023-02-19T16:21:21.826Z,100100.13
2023-02-19T16:24:09.431Z,100101.06
2023-02-19T16:26:42.144Z,100097.50
2023-02-19T16:29:24.041Z,100105.78
2023-02-19T16:31:55.696Z,100098.88
2023-02-19T16:34:46.365Z,100107.28
2023-02-19T16:37:38.410Z,100109.16
2023-02-19T16:40:49.974Z,100112.06
2023-02-19T16:43:36.335Z,100116.50
2023-02-19T16:46:11.678Z,100119.03
2023-02-19T16:48:39.288Z,100125.19
2023-02-19T16:51:09.134Z,100132.13
2023-02-19T16:53:38.805Z,100137.53
2023-02-19T16:56:13.501Z,100131.13
2023-02-19T16:58:40.978Z,100142.22
2023-02-19T17:01:08.663Z,100130.78
2023-02-19T17:03:38.943Z,100139.78
2023-02-19T17:06:09.018Z,100145.38
2023-02-19T17:08:42.088Z,100142.34
2023-02-19T17:11:23.104Z,100138.06
2023-02-19T17:13:51.525Z,100153.75
2023-02-19T17:16:23.443Z,100153.66
2023-02-19T17:18:57.855Z,100152.25
2023-02-19T17:21:34.747Z,100166.63
2023-02-19T17:24:01.998Z,100170.59
2023-02-19T17:26:37.607Z,100169.91
2023-02-19T17:29:14.664Z,100167.63
2023-02-19T17:31:42.062Z,100180.16
2023-02-19T17:34:16.866Z,100180.16
2023-02-19T17:36:48.161Z,100172.09
2023-02-19T17:39:16.149Z,100177.28
2023-02-19T17:41:49.636Z,100182.56
2023-02-19T17:44:19.748Z,100185.56
2023-02-19T17:46:47.726Z,100175.97
2023-02-19T17:49:15.106Z,100178.97
2023-02-19T17:51:42.542Z,100165.84
2023-02-19T17:54:10.002Z,100170.19
2023-02-19T17:56:37.328Z,100176.38
2023-02-19T17:59:04.705Z,100174.94
2023-02-19T18:01:31.991Z,100184.56
2023-02-19T18:03:59.546Z,100192.13
2023-02-19T18:06:27.075Z,100192.75
2023-02-19T18:08:54.426Z,100188.75
2023-02-19T18:11:22.717Z,100183.31
2023-02-19T18:13:51.796Z,100181.97
2023-02-19T18:16:21.730Z,100177.38
2023-02-19T18:18:49.995Z,100187.16
2023-02-19T18:21:18.323Z,100188.88
2023-02-19T18:23:47.390Z,100196.03
2023-02-19T18:26:23.982Z,100194.13
2023-02-19T18:28:51.305Z,100191.06
2023-02-19T18:31:18.727Z,100190.72
2023-02-19T18:33:46.087Z,100190.63
2023-02-19T18:36:13.361Z,100187.75
2023-02-19T18:38:40.632Z,100181.59
2023-02-19T18:41:11.908Z,100188.81
2023-02-19T18:43:41.417Z,100186.38
2023-02-19T18:46:10.067Z,100196.72
2023-02-19T18:48:37.846Z,100190.69
2023-02-19T18:51:08.887Z,100198.44
2023-02-19T18:53:36.496Z,100207.59
2023-02-19T18:56:04.181Z,100216.03
2023-02-19T18:58:31.741Z,100226.44
2023-02-19T19:01:01.303Z,100217.38
2023-02-19T19:03:30.271Z,100217.97
2023-02-19T19:05:57.767Z,100223.72
2023-02-19T19:08:30.389Z,100221.41
2023-02-19T19:10:58.288Z,100220.16
2023-02-19T19:13:28.110Z,100227.81
2023-02-19T19:15:55.372Z,100219.38
2023-02-19T19:18:22.905Z,100232.81
2023-02-19T19:20:50.215Z,100236.75
2023-02-19T19:23:17.522Z,100246.31
2023-02-19T19:25:44.749Z,100246.09
2023-02-19T19:28:11.957Z,100246.59
2023-02-19T19:30:41.927Z,100241.00
2023-02-19T19:33:09.381Z,100252.25
2023-02-19T19:35:36.693Z,100250.38
2023-02-19T19:38:04.285Z,100252.06
2023-02-19T19:40:31.562Z,100244.72
2023-02-19T19:42:58.803Z,100237.81
2023-02-19T19:45:26.434Z,100229.97
2023-02-19T19:47:53.729Z,100233.88
2023-02-19T19:50:21.111Z,100219.50
2023-02-19T19:52:48.532Z,100219.28
2023-02-19T19:55:15.867Z,100221.03
2023-02-19T19:57:43.173Z,100232.19
2023-02-19T20:00:14.696Z,100233.81
2023-02-19T20:02:42.010Z,100242.50
2023-02-19T20:05:09.621Z,100248.53
2023-02-19T20:07:36.858Z,100236.88
2023-02-19T20:10:04.888Z,100238.25
2023-02-19T20:12:32.578Z,100247.00
2023-02-19T20:14:59.953Z,100257.09
2023-02-19T20:17:27.277Z,100271.38
2023-02-19T20:19:54.698Z,100267.69
2023-02-19T20:22:21.913Z,100285.97
2023-02-19T20:24:53.224Z,100280.28
2023-02-19T20:27:22.941Z,100280.66
2023-02-19T20:29:51.382Z,100271.97
2023-02-19T20:32:18.705Z,100274.38
2023-02-19T20:34:46.673Z,100265.06
2023-02-19T20:37:14.691Z,100252.09
2023-02-19T20:39:42.101Z,100249.84
2023-02-19T20:42:09.374Z,100253.28
2023-02-19T20:44:36.687Z,100257.88
2023-02-19T20:47:04.453Z,100251.31
2023-02-19T20:49:33.879Z,100246.50
2023-02-19T20:52:05.182Z,100246.03
2023-02-19T20:54:33.068Z,100254.19
2023-02-19T20:57:02.369Z,100256.53
2023-02-19T20:59:31.578Z,100273.56
2023-02-19T21:01:59.112Z,100270.38
2023-02-19T21:04:26.950Z,100271.56
2023-02-19T21:06:58.411Z,100264.13
2023-02-19T21:09:26.645Z,100256.06
2023-02-19T21:11:54.007Z,100268.94
2023-02-19T21:14:21.560Z,100273.13
2023-02-19T21:16:49.674Z,100271.56
2023-02-19T21:19:17.009Z,100273.44
2023-02-19T21:21:50.095Z,100279.41
2023-02-19T21:24:17.770Z,100276.06
2023-02-19T21:26:45.437Z,100278.69
2023-02-19T21:29:21.122Z,100276.31
2023-02-19T21:31:51.774Z,100274.81
2023-02-19T21:34:24.394Z,100274.06
2023-02-19T21:36:52.557Z,100276.69
2023-02-19T21:39:22.963Z,100264.66
2023-02-19T21:41:50.854Z,100267.91
2023-02-19T21:44:19.095Z,100260.72
2023-02-19T21:46:47.135Z,100262.88
2023-02-19T21:49:14.658Z,100262.53
2023-02-19T21:51:44.232Z,100263.38
2023-02-19T21:54:17.673Z,100260.66
2023-02-19T21:56:45.238Z,100263.94
2023-02-19T21:59:12.873Z,100255.94
2023-02-19T22:01:40.774Z,100248.53
2023-02-19T22:04:09.957Z,100251.47
2023-02-19T22:06:37.239Z,100253.78
2023-02-19T22:09:04.704Z,100240.19
2023-02-19T22:11:32.018Z,100252.28
2023-02-19T22:14:00.361Z,100248.25
2023-02-19T22:16:28.072Z,100244.25
2023-02-19T22:18:57.621Z,100237.56
2023-02-19T22:21:30.186Z,100243.47
2023-02-19T22:23:58.323Z,100255.00
2023-02-19T22:26:30.703Z,100249.97
2023-02-19T22:28:58.860Z,100258.53
2023-02-19T22:31:27.616Z,100254.41
2023-02-19T22:33:56.435Z,100256.38
2023-02-19T22:36:28.945Z,100254.91
2023-02-19T22:38:56.786Z,100262.84
2023-02-19T22:41:24.021Z,100257.41
2023-02-19T22:43:55.064Z,100252.59
2023-02-19T22:46:24.529Z,100260.44
2023-02-19T22:48:51.842Z,100280.19
2023-02-19T22:51:22.066Z,100281.59
2023-02-19T22:53:52.344Z,100272.50
2023-02-19T22:56:21.697Z,100280.78
2023-02-19T22:58:49.507Z,100286.91
2023-02-19T23:01:17.392Z,100288.06
2023-02-19T23:03:50.315Z,100281.97
2023-02-19T23:06:22.520Z,100271.50
2023-02-19T23:08:50.045Z,100261.03
2023-02-19T23:11:22.485Z,100264.72
2023-02-19T23:13:49.907Z,100264.56
2023-02-19T23:16:18.073Z,100261.84
2023-02-19T23:18:47.836Z,100257.59
2023-02-19T23:21:16.407Z,100254.81
2023-02-19T23:23:45.686Z,100256.44
2023-02-19T23:26:15.558Z,100261.09
2023-02-19T23:28:44.437Z,100258.44
2023-02-19T23:31:12.762Z,100258.09
2023-02-19T23:33:40.353Z,100259.75
2023-02-19T23:36:08.431Z,100262.94
2023-02-19T23:38:36.616Z,100267.03
2023-02-19T23:41:04.400Z,100265.06
2023-02-19T23:43:31.656Z,100262.78
2023-02-19T23:45:59.037Z,100244.34
2023-02-19T23:48:26.317Z,100255.06
2023-02-19T23:50:53.809Z,100264.56
2023-02-19T23:53:21.163Z,100267.34
2023-02-19T23:55:49.208Z,100281.31
2023-02-19T23:58:16.656Z,100269.75
